sensor_id;sensor_type;location;lat;lon;timestamp;P1;durP1;ratioP1;P2;durP2;ratioP2
27746;SDS011;15138;51.012;4.692;2024-02-04T00:01:32;20.55;;;10.73;;
27746;SDS011;15138;51.012;4.692;2024-02-04T00:04:02;20.85;;;12.93;;
27746;SDS011;15138;51.012;4.692;2024-02-04T00:06:31;17.98;;;10.77;;
27746;SDS011;15138;51.012;4.692;2024-02-04T00:09:00;15.75;;;8.45;;
27746;SDS011;15138;51.012;4.692;2024-02-04T00:11:30;13.60;;;8.45;;
27746;SDS011;15138;51.012;4.692;2024-02-04T00:13:58;17.05;;;8.95;;
27746;SDS011;15138;51.012;4.692;2024-02-04T00:16:27;14.77;;;7.00;;
27746;SDS011;15138;51.012;4.692;2024-02-04T00:18:55;15.75;;;8.80;;
27746;SDS011;15138;51.012;4.692;2024-02-04T00:21:25;11.68;;;6.82;;
27746;SDS011;15138;51.012;4.692;2024-02-04T00:23:54;15.63;;;8.68;;
27746;SDS011;15138;51.012;4.692;2024-02-04T00:26:22;13.90;;;7.05;;
27746;SDS011;15138;51.012;4.692;2024-02-04T00:28:51;15.55;;;7.68;;
27746;SDS011;15138;51.012;4.692;2024-02-04T00:31:19;14.75;;;6.57;;
27746;SDS011;15138;51.012;4.692;2024-02-04T00:33:47;14.70;;;8.43;;
27746;SDS011;15138;51.012;4.692;2024-02-04T00:36:16;11.50;;;6.80;;
27746;SDS011;15138;51.012;4.692;2024-02-04T00:38:47;15.15;;;8.40;;
27746;SDS011;15138;51.012;4.692;2024-02-04T00:41:15;14.55;;;8.80;;
27746;SDS011;15138;51.012;4.692;2024-02-04T00:43:44;13.20;;;5.55;;
27746;SDS011;15138;51.012;4.692;2024-02-04T00:46:12;17.38;;;10.20;;
27746;SDS011;15138;51.012;4.692;2024-02-04T00:48:40;9.68;;;4.78;;
27746;SDS011;15138;51.012;4.692;2024-02-04T00:51:09;16.98;;;8.90;;
27746;SDS011;15138;51.012;4.692;2024-02-04T00:53:39;16.67;;;7.25;;
27746;SDS011;15138;51.012;4.692;2024-02-04T00:56:09;18.85;;;9.73;;
27746;SDS011;15138;51.012;4.692;2024-02-04T00:58:37;18.98;;;9.43;;
27746;SDS011;15138;51.012;4.692;2024-02-04T01:01:06;15.95;;;7.95;;
27746;SDS011;15138;51.012;4.692;2024-02-04T01:03:35;14.32;;;8.02;;
27746;SDS011;15138;51.012;4.692;2024-02-04T01:06:03;15.63;;;8.05;;
27746;SDS011;15138;51.012;4.692;2024-02-04T01:08:32;9.07;;;5.07;;
27746;SDS011;15138;51.012;4.692;2024-02-04T01:11:01;19.75;;;9.13;;
27746;SDS011;15138;51.012;4.692;2024-02-04T01:13:31;16.13;;;8.52;;
27746;SDS011;15138;51.012;4.692;2024-02-04T01:15:59;16.73;;;10.05;;
27746;SDS011;15138;51.012;4.692;2024-02-04T01:18:28;16.73;;;8.10;;
27746;SDS011;15138;51.012;4.692;2024-02-04T01:20:58;16.65;;;9.88;;
27746;SDS011;15138;51.012;4.692;2024-02-04T01:23:27;15.15;;;7.53;;
27746;SDS011;15138;51.012;4.692;2024-02-04T01:25:55;17.38;;;8.40;;
27746;SDS011;15138;51.012;4.692;2024-02-04T01:28:24;21.33;;;12.63;;
27746;SDS011;15138;51.012;4.692;2024-02-04T01:30:54;15.95;;;8.30;;
27746;SDS011;15138;51.012;4.692;2024-02-04T01:33:22;17.55;;;8.82;;
27746;SDS011;15138;51.012;4.692;2024-02-04T01:35:51;15.23;;;8.63;;
27746;SDS011;15138;51.012;4.692;2024-02-04T01:38:20;18.10;;;10.30;;
27746;SDS011;15138;51.012;4.692;2024-02-04T01:40:48;13.38;;;7.60;;
27746;SDS011;15138;51.012;4.692;2024-02-04T01:43:18;17.38;;;8.60;;
27746;SDS011;15138;51.012;4.692;2024-02-04T01:45:49;16.02;;;7.60;;
27746;SDS011;15138;51.012;4.692;2024-02-04T01:48:20;12.77;;;8.18;;
27746;SDS011;15138;51.012;4.692;2024-02-04T01:50:50;9.43;;;6.30;;
27746;SDS011;15138;51.012;4.692;2024-02-04T01:53:21;15.68;;;6.20;;
27746;SDS011;15138;51.012;4.692;2024-02-04T01:55:50;12.32;;;7.70;;
27746;SDS011;15138;51.012;4.692;2024-02-04T01:58:21;16.98;;;9.98;;
27746;SDS011;15138;51.012;4.692;2024-02-04T02:00:50;14.32;;;6.63;;
27746;SDS011;15138;51.012;4.692;2024-02-04T02:03:21;12.25;;;7.20;;
27746;SDS011;15138;51.012;4.692;2024-02-04T02:05:50;15.80;;;7.53;;
27746;SDS011;15138;51.012;4.692;2024-02-04T02:08:18;15.93;;;7.35;;
27746;SDS011;15138;51.012;4.692;2024-02-04T02:10:47;12.50;;;7.00;;
27746;SDS011;15138;51.012;4.692;2024-02-04T02:13:16;18.60;;;9.38;;
27746;SDS011;15138;51.012;4.692;2024-02-04T02:15:48;19.55;;;9.77;;
27746;SDS011;15138;51.012;4.692;2024-02-04T02:18:18;19.27;;;11.27;;
27746;SDS011;15138;51.012;4.692;2024-02-04T02:20:55;17.60;;;10.85;;
27746;SDS011;15138;51.012;4.692;2024-02-04T02:23:30;19.88;;;9.30;;
27746;SDS011;15138;51.012;4.692;2024-02-04T02:26:00;19.20;;;12.30;;
27746;SDS011;15138;51.012;4.692;2024-02-04T02:28:28;23.38;;;12.18;;
27746;SDS011;15138;51.012;4.692;2024-02-04T02:30:57;21.48;;;9.43;;
27746;SDS011;15138;51.012;4.692;2024-02-04T02:33:28;22.63;;;10.30;;
27746;SDS011;15138;51.012;4.692;2024-02-04T02:35:56;22.92;;;11.63;;
27746;SDS011;15138;51.012;4.692;2024-02-04T02:38:26;20.15;;;9.65;;
27746;SDS011;15138;51.012;4.692;2024-02-04T02:40:58;15.50;;;9.43;;
27746;SDS011;15138;51.012;4.692;2024-02-04T02:43:28;20.70;;;10.18;;
27746;SDS011;15138;51.012;4.692;2024-02-04T02:45:57;19.63;;;9.65;;
27746;SDS011;15138;51.012;4.692;2024-02-04T02:48:25;18.40;;;9.52;;
27746;SDS011;15138;51.012;4.692;2024-02-04T02:50:55;16.25;;;9.95;;
27746;SDS011;15138;51.012;4.692;2024-02-04T02:53:24;25.80;;;11.48;;
27746;SDS011;15138;51.012;4.692;2024-02-04T02:55:52;27.83;;;12.23;;
27746;SDS011;15138;51.012;4.692;2024-02-04T02:58:20;26.70;;;14.48;;
27746;SDS011;15138;51.012;4.692;2024-02-04T03:00:50;27.80;;;14.25;;
27746;SDS011;15138;51.012;4.692;2024-02-04T03:03:19;23.00;;;10.48;;
27746;SDS011;15138;51.012;4.692;2024-02-04T03:05:47;22.45;;;10.30;;
27746;SDS011;15138;51.012;4.692;2024-02-04T03:08:15;21.65;;;11.68;;
27746;SDS011;15138;51.012;4.692;2024-02-04T03:10:44;25.40;;;12.32;;
27746;SDS011;15138;51.012;4.692;2024-02-04T03:13:12;18.60;;;10.02;;
27746;SDS011;15138;51.012;4.692;2024-02-04T03:15:40;32.05;;;13.50;;
27746;SDS011;15138;51.012;4.692;2024-02-04T03:18:10;26.92;;;10.85;;
27746;SDS011;15138;51.012;4.692;2024-02-04T03:20:38;21.83;;;10.63;;
27746;SDS011;15138;51.012;4.692;2024-02-04T03:23:07;28.70;;;13.48;;
27746;SDS011;15138;51.012;4.692;2024-02-04T03:25:35;26.95;;;12.15;;
27746;SDS011;15138;51.012;4.692;2024-02-04T03:28:03;25.85;;;12.82;;
27746;SDS011;15138;51.012;4.692;2024-02-04T03:30:31;27.55;;;10.30;;
27746;SDS011;15138;51.012;4.692;2024-02-04T03:33:00;24.70;;;13.82;;
27746;SDS011;15138;51.012;4.692;2024-02-04T03:35:29;31.17;;;11.95;;
27746;SDS011;15138;51.012;4.692;2024-02-04T03:37:57;25.40;;;12.75;;
27746;SDS011;15138;51.012;4.692;2024-02-04T03:40:26;24.95;;;12.02;;
27746;SDS011;15138;51.012;4.692;2024-02-04T03:42:54;23.95;;;12.70;;
27746;SDS011;15138;51.012;4.692;2024-02-04T03:45:22;25.80;;;11.32;;
27746;SDS011;15138;51.012;4.692;2024-02-04T03:47:50;26.67;;;11.30;;
27746;SDS011;15138;51.012;4.692;2024-02-04T03:50:18;20.42;;;8.85;;
27746;SDS011;15138;51.012;4.692;2024-02-04T03:52:48;26.50;;;9.02;;
27746;SDS011;15138;51.012;4.692;2024-02-04T03:55:16;23.05;;;9.45;;
27746;SDS011;15138;51.012;4.692;2024-02-04T03:57:44;20.00;;;9.40;;
27746;SDS011;15138;51.012;4.692;2024-02-04T04:00:13;19.38;;;10.20;;
27746;SDS011;15138;51.012;4.692;2024-02-04T04:02:41;28.52;;;9.40;;
27746;SDS011;15138;51.012;4.692;2024-02-04T04:05:10;18.17;;;8.48;;
27746;SDS011;15138;51.012;4.692;2024-02-04T04:07:39;18.80;;;9.05;;
27746;SDS011;15138;51.012;4.692;2024-02-04T04:10:09;14.63;;;6.55;;
27746;SDS011;15138;51.012;4.692;2024-02-04T04:12:37;8.77;;;2.40;;
27746;SDS011;15138;51.012;4.692;2024-02-04T04:15:06;17.33;;;7.22;;
27746;SDS011;15138;51.012;4.692;2024-02-04T04:17:34;15.73;;;6.68;;
27746;SDS011;15138;51.012;4.692;2024-02-04T04:20:03;19.15;;;7.35;;
27746;SDS011;15138;51.012;4.692;2024-02-04T04:22:34;7.15;;;4.32;;
27746;SDS011;15138;51.012;4.692;2024-02-04T04:25:02;15.40;;;7.93;;
27746;SDS011;15138;51.012;4.692;2024-02-04T04:27:32;14.60;;;6.65;;
27746;SDS011;15138;51.012;4.692;2024-02-04T04:30:00;14.63;;;6.95;;
27746;SDS011;15138;51.012;4.692;2024-02-04T04:32:28;13.30;;;7.03;;
27746;SDS011;15138;51.012;4.692;2024-02-04T04:34:57;13.02;;;7.80;;
27746;SDS011;15138;51.012;4.692;2024-02-04T04:37:25;13.80;;;6.90;;
27746;SDS011;15138;51.012;4.692;2024-02-04T04:39:53;12.50;;;5.88;;
27746;SDS011;15138;51.012;4.692;2024-02-04T04:42:22;14.40;;;5.70;;
27746;SDS011;15138;51.012;4.692;2024-02-04T04:44:52;19.25;;;7.55;;
27746;SDS011;15138;51.012;4.692;2024-02-04T04:47:20;21.85;;;7.85;;
27746;SDS011;15138;51.012;4.692;2024-02-04T04:49:48;17.02;;;7.85;;
27746;SDS011;15138;51.012;4.692;2024-02-04T04:52:17;19.73;;;6.95;;
27746;SDS011;15138;51.012;4.692;2024-02-04T04:54:45;16.58;;;7.72;;
27746;SDS011;15138;51.012;4.692;2024-02-04T04:57:13;14.38;;;7.60;;
27746;SDS011;15138;51.012;4.692;2024-02-04T04:59:41;15.45;;;7.10;;
27746;SDS011;15138;51.012;4.692;2024-02-04T05:02:11;13.70;;;5.38;;
27746;SDS011;15138;51.012;4.692;2024-02-04T05:04:42;19.15;;;8.48;;
27746;SDS011;15138;51.012;4.692;2024-02-04T05:07:11;10.05;;;5.85;;
27746;SDS011;15138;51.012;4.692;2024-02-04T05:09:39;14.45;;;5.90;;
27746;SDS011;15138;51.012;4.692;2024-02-04T05:12:08;20.15;;;8.75;;
27746;SDS011;15138;51.012;4.692;2024-02-04T05:14:37;14.45;;;6.10;;
27746;SDS011;15138;51.012;4.692;2024-02-04T05:17:05;7.57;;;4.40;;
27746;SDS011;15138;51.012;4.692;2024-02-04T05:19:35;12.88;;;6.00;;
27746;SDS011;15138;51.012;4.692;2024-02-04T05:22:03;14.73;;;6.20;;
27746;SDS011;15138;51.012;4.692;2024-02-04T05:24:31;17.40;;;9.00;;
27746;SDS011;15138;51.012;4.692;2024-02-04T05:26:59;16.60;;;8.25;;
27746;SDS011;15138;51.012;4.692;2024-02-04T05:29:27;9.32;;;4.00;;
27746;SDS011;15138;51.012;4.692;2024-02-04T05:31:57;14.25;;;6.78;;
27746;SDS011;15138;51.012;4.692;2024-02-04T05:34:26;11.60;;;5.95;;
27746;SDS011;15138;51.012;4.692;2024-02-04T05:36:58;14.93;;;7.50;;
27746;SDS011;15138;51.012;4.692;2024-02-04T05:39:26;18.40;;;7.57;;
27746;SDS011;15138;51.012;4.692;2024-02-04T05:41:54;14.82;;;8.60;;
27746;SDS011;15138;51.012;4.692;2024-02-04T05:44:22;17.63;;;7.18;;
27746;SDS011;15138;51.012;4.692;2024-02-04T05:46:51;12.85;;;6.25;;
27746;SDS011;15138;51.012;4.692;2024-02-04T05:49:19;13.77;;;6.85;;
27746;SDS011;15138;51.012;4.692;2024-02-04T05:51:47;14.68;;;7.70;;
27746;SDS011;15138;51.012;4.692;2024-02-04T05:54:17;19.10;;;7.00;;
27746;SDS011;15138;51.012;4.692;2024-02-04T05:56:45;13.93;;;6.13;;
27746;SDS011;15138;51.012;4.692;2024-02-04T05:59:13;11.27;;;4.88;;
27746;SDS011;15138;51.012;4.692;2024-02-04T06:01:42;13.32;;;6.82;;
27746;SDS011;15138;51.012;4.692;2024-02-04T06:04:11;15.88;;;7.55;;
27746;SDS011;15138;51.012;4.692;2024-02-04T06:06:39;12.63;;;6.38;;
27746;SDS011;15138;51.012;4.692;2024-02-04T06:09:08;14.32;;;5.82;;
27746;SDS011;15138;51.012;4.692;2024-02-04T06:11:38;14.45;;;6.10;;
27746;SDS011;15138;51.012;4.692;2024-02-04T06:14:06;18.17;;;8.23;;
27746;SDS011;15138;51.012;4.692;2024-02-04T06:16:34;18.75;;;9.05;;
27746;SDS011;15138;51.012;4.692;2024-02-04T06:19:02;18.30;;;6.65;;
27746;SDS011;15138;51.012;4.692;2024-02-04T06:21:31;22.60;;;9.80;;
27746;SDS011;15138;51.012;4.692;2024-02-04T06:23:59;21.92;;;9.00;;
27746;SDS011;15138;51.012;4.692;2024-02-04T06:26:27;16.65;;;6.90;;
27746;SDS011;15138;51.012;4.692;2024-02-04T06:28:58;16.33;;;6.88;;
27746;SDS011;15138;51.012;4.692;2024-02-04T06:31:26;23.05;;;8.60;;
27746;SDS011;15138;51.012;4.692;2024-02-04T06:33:54;20.85;;;8.88;;
27746;SDS011;15138;51.012;4.692;2024-02-04T06:36:22;20.70;;;9.07;;
27746;SDS011;15138;51.012;4.692;2024-02-04T06:38:51;26.38;;;10.63;;
27746;SDS011;15138;51.012;4.692;2024-02-04T06:41:19;16.00;;;8.23;;
27746;SDS011;15138;51.012;4.692;2024-02-04T06:43:47;15.43;;;6.20;;
27746;SDS011;15138;51.012;4.692;2024-02-04T06:46:24;21.35;;;8.50;;
27746;SDS011;15138;51.012;4.692;2024-02-04T06:48:53;17.10;;;8.57;;
27746;SDS011;15138;51.012;4.692;2024-02-04T06:51:22;17.15;;;7.00;;
27746;SDS011;15138;51.012;4.692;2024-02-04T06:53:50;13.43;;;6.97;;
27746;SDS011;15138;51.012;4.692;2024-02-04T06:56:18;20.40;;;7.78;;
27746;SDS011;15138;51.012;4.692;2024-02-04T06:58:46;15.75;;;6.78;;
27746;SDS011;15138;51.012;4.692;2024-02-04T07:01:15;20.45;;;7.93;;
27746;SDS011;15138;51.012;4.692;2024-02-04T07:03:44;18.65;;;8.25;;
27746;SDS011;15138;51.012;4.692;2024-02-04T07:06:13;18.17;;;9.95;;
27746;SDS011;15138;51.012;4.692;2024-02-04T07:08:41;23.40;;;9.15;;
27746;SDS011;15138;51.012;4.692;2024-02-04T07:11:09;23.13;;;9.48;;
27746;SDS011;15138;51.012;4.692;2024-02-04T07:13:37;23.38;;;10.40;;
27746;SDS011;15138;51.012;4.692;2024-02-04T07:16:05;21.00;;;9.40;;
27746;SDS011;15138;51.012;4.692;2024-02-04T07:18:34;23.52;;;9.15;;
27746;SDS011;15138;51.012;4.692;2024-02-04T07:21:03;16.05;;;7.85;;
27746;SDS011;15138;51.012;4.692;2024-02-04T07:23:32;19.38;;;6.22;;
27746;SDS011;15138;51.012;4.692;2024-02-04T07:26:00;19.67;;;7.53;;
27746;SDS011;15138;51.012;4.692;2024-02-04T07:28:28;16.63;;;7.25;;
27746;SDS011;15138;51.012;4.692;2024-02-04T07:30:56;16.65;;;8.45;;
27746;SDS011;15138;51.012;4.692;2024-02-04T07:33:24;23.33;;;8.20;;
27746;SDS011;15138;51.012;4.692;2024-02-04T07:35:56;20.02;;;8.35;;
27746;SDS011;15138;51.012;4.692;2024-02-04T07:38:25;23.10;;;7.40;;
27746;SDS011;15138;51.012;4.692;2024-02-04T07:40:53;14.88;;;6.63;;
27746;SDS011;15138;51.012;4.692;2024-02-04T07:43:25;16.63;;;8.93;;
27746;SDS011;15138;51.012;4.692;2024-02-04T07:45:53;17.45;;;7.43;;
27746;SDS011;15138;51.012;4.692;2024-02-04T07:48:21;20.17;;;7.38;;
27746;SDS011;15138;51.012;4.692;2024-02-04T07:50:50;20.48;;;9.95;;
27746;SDS011;15138;51.012;4.692;2024-02-04T07:53:18;15.50;;;6.97;;
27746;SDS011;15138;51.012;4.692;2024-02-04T07:55:47;19.90;;;9.05;;
27746;SDS011;15138;51.012;4.692;2024-02-04T07:58:17;15.77;;;6.72;;
27746;SDS011;15138;51.012;4.692;2024-02-04T08:00:45;15.65;;;8.52;;
27746;SDS011;15138;51.012;4.692;2024-02-04T08:03:13;20.42;;;7.90;;
27746;SDS011;15138;51.012;4.692;2024-02-04T08:05:42;15.88;;;7.95;;
27746;SDS011;15138;51.012;4.692;2024-02-04T08:08:10;15.90;;;7.32;;
27746;SDS011;15138;51.012;4.692;2024-02-04T08:10:38;18.23;;;7.95;;
27746;SDS011;15138;51.012;4.692;2024-02-04T08:13:08;18.30;;;8.68;;
27746;SDS011;15138;51.012;4.692;2024-02-04T08:15:36;16.08;;;8.00;;
27746;SDS011;15138;51.012;4.692;2024-02-04T08:18:04;14.82;;;7.43;;
27746;SDS011;15138;51.012;4.692;2024-02-04T08:20:34;23.58;;;9.02;;
27746;SDS011;15138;51.012;4.692;2024-02-04T08:23:02;15.35;;;7.05;;
27746;SDS011;15138;51.012;4.692;2024-02-04T08:25:31;24.40;;;9.20;;
27746;SDS011;15138;51.012;4.692;2024-02-04T08:27:59;18.30;;;9.18;;
27746;SDS011;15138;51.012;4.692;2024-02-04T08:30:28;19.67;;;8.60;;
27746;SDS011;15138;51.012;4.692;2024-02-04T08:32:57;17.20;;;8.50;;
27746;SDS011;15138;51.012;4.692;2024-02-04T08:35:27;20.48;;;8.60;;
27746;SDS011;15138;51.012;4.692;2024-02-04T08:37:55;21.83;;;11.10;;
27746;SDS011;15138;51.012;4.692;2024-02-04T08:40:23;16.50;;;5.90;;
27746;SDS011;15138;51.012;4.692;2024-02-04T08:42:53;11.25;;;6.25;;
27746;SDS011;15138;51.012;4.692;2024-02-04T08:45:23;23.05;;;10.60;;
27746;SDS011;15138;51.012;4.692;2024-02-04T08:47:55;19.30;;;8.40;;
27746;SDS011;15138;51.012;4.692;2024-02-04T08:50:24;19.23;;;9.30;;
27746;SDS011;15138;51.012;4.692;2024-02-04T08:52:54;14.40;;;5.70;;
27746;SDS011;15138;51.012;4.692;2024-02-04T08:55:23;14.48;;;7.32;;
27746;SDS011;15138;51.012;4.692;2024-02-04T08:57:53;19.38;;;7.90;;
27746;SDS011;15138;51.012;4.692;2024-02-04T09:00:23;15.48;;;7.43;;
27746;SDS011;15138;51.012;4.692;2024-02-04T09:02:55;11.30;;;5.20;;
27746;SDS011;15138;51.012;4.692;2024-02-04T09:05:23;12.77;;;6.30;;
27746;SDS011;15138;51.012;4.692;2024-02-04T09:07:52;18.10;;;5.85;;
27746;SDS011;15138;51.012;4.692;2024-02-04T09:10:21;11.90;;;5.07;;
27746;SDS011;15138;51.012;4.692;2024-02-04T09:12:50;15.93;;;6.05;;
27746;SDS011;15138;51.012;4.692;2024-02-04T09:15:18;12.45;;;5.50;;
27746;SDS011;15138;51.012;4.692;2024-02-04T09:17:47;9.43;;;4.85;;
27746;SDS011;15138;51.012;4.692;2024-02-04T09:20:17;12.52;;;4.95;;
27746;SDS011;15138;51.012;4.692;2024-02-04T09:22:45;13.65;;;5.43;;
27746;SDS011;15138;51.012;4.692;2024-02-04T09:25:13;19.00;;;7.53;;
27746;SDS011;15138;51.012;4.692;2024-02-04T09:27:42;12.20;;;6.40;;
27746;SDS011;15138;51.012;4.692;2024-02-04T09:30:11;13.93;;;6.20;;
27746;SDS011;15138;51.012;4.692;2024-02-04T09:32:40;11.23;;;4.75;;
27746;SDS011;15138;51.012;4.692;2024-02-04T09:35:08;4.95;;;2.65;;
27746;SDS011;15138;51.012;4.692;2024-02-04T09:37:38;14.52;;;7.07;;
27746;SDS011;15138;51.012;4.692;2024-02-04T09:40:07;12.65;;;5.63;;
27746;SDS011;15138;51.012;4.692;2024-02-04T09:42:38;12.80;;;5.30;;
27746;SDS011;15138;51.012;4.692;2024-02-04T09:45:06;11.77;;;5.60;;
27746;SDS011;15138;51.012;4.692;2024-02-04T09:47:36;15.57;;;5.90;;
27746;SDS011;15138;51.012;4.692;2024-02-04T09:50:05;13.95;;;5.63;;
27746;SDS011;15138;51.012;4.692;2024-02-04T09:52:34;13.77;;;5.28;;
27746;SDS011;15138;51.012;4.692;2024-02-04T09:55:09;7.65;;;3.97;;
27746;SDS011;15138;51.012;4.692;2024-02-04T09:57:38;6.97;;;2.00;;
27746;SDS011;15138;51.012;4.692;2024-02-04T10:00:07;14.02;;;3.70;;
27746;SDS011;15138;51.012;4.692;2024-02-04T10:02:36;11.73;;;4.28;;
27746;SDS011;15138;51.012;4.692;2024-02-04T10:05:05;9.43;;;3.83;;
27746;SDS011;15138;51.012;4.692;2024-02-04T10:07:36;10.20;;;3.45;;
27746;SDS011;15138;51.012;4.692;2024-02-04T10:10:06;8.63;;;3.97;;
27746;SDS011;15138;51.012;4.692;2024-02-04T10:12:36;11.45;;;4.03;;
27746;SDS011;15138;51.012;4.692;2024-02-04T10:15:07;7.70;;;3.50;;
27746;SDS011;15138;51.012;4.692;2024-02-04T10:17:36;9.93;;;4.07;;
27746;SDS011;15138;51.012;4.692;2024-02-04T10:20:09;10.52;;;4.15;;
27746;SDS011;15138;51.012;4.692;2024-02-04T10:22:39;10.50;;;4.00;;
27746;SDS011;15138;51.012;4.692;2024-02-04T10:25:08;9.88;;;3.45;;
27746;SDS011;15138;51.012;4.692;2024-02-04T10:27:40;9.52;;;3.63;;
27746;SDS011;15138;51.012;4.692;2024-02-04T10:30:09;10.45;;;3.47;;
27746;SDS011;15138;51.012;4.692;2024-02-04T10:32:38;10.75;;;3.83;;
27746;SDS011;15138;51.012;4.692;2024-02-04T10:35:07;5.75;;;2.28;;
27746;SDS011;15138;51.012;4.692;2024-02-04T10:37:36;7.63;;;2.95;;
27746;SDS011;15138;51.012;4.692;2024-02-04T10:40:05;8.65;;;3.30;;
27746;SDS011;15138;51.012;4.692;2024-02-04T10:42:34;9.30;;;3.22;;
27746;SDS011;15138;51.012;4.692;2024-02-04T10:45:05;9.65;;;3.70;;
27746;SDS011;15138;51.012;4.692;2024-02-04T10:47:38;8.07;;;2.80;;
27746;SDS011;15138;51.012;4.692;2024-02-04T10:50:07;9.55;;;3.45;;
27746;SDS011;15138;51.012;4.692;2024-02-04T10:52:36;6.13;;;3.10;;
27746;SDS011;15138;51.012;4.692;2024-02-04T10:55:06;5.35;;;2.53;;
27746;SDS011;15138;51.012;4.692;2024-02-04T10:57:36;8.45;;;3.13;;
27746;SDS011;15138;51.012;4.692;2024-02-04T11:00:07;13.27;;;4.28;;
27746;SDS011;15138;51.012;4.692;2024-02-04T11:02:38;11.60;;;3.90;;
27746;SDS011;15138;51.012;4.692;2024-02-04T11:05:07;8.27;;;3.25;;
27746;SDS011;15138;51.012;4.692;2024-02-04T11:07:36;6.78;;;2.65;;
27746;SDS011;15138;51.012;4.692;2024-02-04T11:10:05;8.18;;;2.88;;
27746;SDS011;15138;51.012;4.692;2024-02-04T11:12:34;7.32;;;3.58;;
27746;SDS011;15138;51.012;4.692;2024-02-04T11:15:04;8.00;;;3.25;;
27746;SDS011;15138;51.012;4.692;2024-02-04T11:20:42;6.22;;;2.67;;
27746;SDS011;15138;51.012;4.692;2024-02-04T11:23:21;11.40;;;3.83;;
27746;SDS011;15138;51.012;4.692;2024-02-04T11:25:52;10.85;;;3.90;;
27746;SDS011;15138;51.012;4.692;2024-02-04T11:28:25;8.65;;;3.33;;
27746;SDS011;15138;51.012;4.692;2024-02-04T11:30:54;7.40;;;3.20;;
27746;SDS011;15138;51.012;4.692;2024-02-04T11:33:23;7.88;;;3.40;;
27746;SDS011;15138;51.012;4.692;2024-02-04T11:36:04;6.78;;;2.88;;
27746;SDS011;15138;51.012;4.692;2024-02-04T11:38:35;5.45;;;1.25;;
27746;SDS011;15138;51.012;4.692;2024-02-04T11:41:04;9.57;;;3.63;;
27746;SDS011;15138;51.012;4.692;2024-02-04T11:43:33;7.32;;;3.28;;
27746;SDS011;15138;51.012;4.692;2024-02-04T11:46:02;7.53;;;2.08;;
27746;SDS011;15138;51.012;4.692;2024-02-04T11:48:32;8.65;;;3.30;;
27746;SDS011;15138;51.012;4.692;2024-02-04T11:51:01;4.63;;;1.85;;
27746;SDS011;15138;51.012;4.692;2024-02-04T11:53:34;6.93;;;2.63;;
27746;SDS011;15138;51.012;4.692;2024-02-04T11:56:03;8.32;;;2.53;;
27746;SDS011;15138;51.012;4.692;2024-02-04T11:58:31;7.75;;;2.03;;
27746;SDS011;15138;51.012;4.692;2024-02-04T12:01:01;6.28;;;3.50;;
27746;SDS011;15138;51.012;4.692;2024-02-04T12:03:31;10.02;;;2.45;;
27746;SDS011;15138;51.012;4.692;2024-02-04T12:06:00;5.95;;;2.28;;
27746;SDS011;15138;51.012;4.692;2024-02-04T12:08:29;3.95;;;2.20;;
27746;SDS011;15138;51.012;4.692;2024-02-04T12:10:59;8.52;;;2.30;;
27746;SDS011;15138;51.012;4.692;2024-02-04T12:13:28;6.88;;;2.20;;
27746;SDS011;15138;51.012;4.692;2024-02-04T12:15:57;7.10;;;2.72;;
27746;SDS011;15138;51.012;4.692;2024-02-04T12:18:25;5.20;;;2.10;;
27746;SDS011;15138;51.012;4.692;2024-02-04T12:20:54;9.73;;;2.65;;
27746;SDS011;15138;51.012;4.692;2024-02-04T12:23:23;4.65;;;2.10;;
27746;SDS011;15138;51.012;4.692;2024-02-04T12:25:53;5.35;;;2.40;;
27746;SDS011;15138;51.012;4.692;2024-02-04T12:28:24;7.72;;;1.88;;
27746;SDS011;15138;51.012;4.692;2024-02-04T12:30:53;3.55;;;1.80;;
27746;SDS011;15138;51.012;4.692;2024-02-04T12:33:22;6.22;;;1.67;;
27746;SDS011;15138;51.012;4.692;2024-02-04T12:35:51;3.17;;;1.52;;
27746;SDS011;15138;51.012;4.692;2024-02-04T12:38:22;7.20;;;1.90;;
27746;SDS011;15138;51.012;4.692;2024-02-04T12:40:51;4.53;;;1.80;;
27746;SDS011;15138;51.012;4.692;2024-02-04T12:43:19;5.55;;;1.80;;
27746;SDS011;15138;51.012;4.692;2024-02-04T12:45:49;4.95;;;2.30;;
27746;SDS011;15138;51.012;4.692;2024-02-04T12:48:18;8.52;;;2.53;;
27746;SDS011;15138;51.012;4.692;2024-02-04T12:50:49;5.95;;;2.13;;
27746;SDS011;15138;51.012;4.692;2024-02-04T12:53:18;4.72;;;1.98;;
27746;SDS011;15138;51.012;4.692;2024-02-04T12:55:47;4.30;;;2.00;;
27746;SDS011;15138;51.012;4.692;2024-02-04T12:58:16;6.68;;;2.33;;
27746;SDS011;15138;51.012;4.692;2024-02-04T13:00:44;5.10;;;2.10;;
27746;SDS011;15138;51.012;4.692;2024-02-04T13:03:15;7.25;;;2.25;;
27746;SDS011;15138;51.012;4.692;2024-02-04T13:05:43;6.22;;;2.20;;
27746;SDS011;15138;51.012;4.692;2024-02-04T13:08:12;4.10;;;2.00;;
27746;SDS011;15138;51.012;4.692;2024-02-04T13:10:41;9.80;;;2.20;;
27746;SDS011;15138;51.012;4.692;2024-02-04T13:13:12;5.93;;;2.10;;
27746;SDS011;15138;51.012;4.692;2024-02-04T13:15:40;5.57;;;2.10;;
27746;SDS011;15138;51.012;4.692;2024-02-04T13:18:10;3.95;;;1.52;;
27746;SDS011;15138;51.012;4.692;2024-02-04T13:20:43;4.57;;;2.17;;
27746;SDS011;15138;51.012;4.692;2024-02-04T13:23:11;3.50;;;1.90;;
27746;SDS011;15138;51.012;4.692;2024-02-04T13:25:40;5.47;;;2.00;;
27746;SDS011;15138;51.012;4.692;2024-02-04T13:28:10;8.43;;;2.20;;
27746;SDS011;15138;51.012;4.692;2024-02-04T13:30:39;4.70;;;1.90;;
27746;SDS011;15138;51.012;4.692;2024-02-04T13:33:08;7.28;;;2.20;;
27746;SDS011;15138;51.012;4.692;2024-02-04T13:35:36;4.63;;;1.92;;
27746;SDS011;15138;51.012;4.692;2024-02-04T13:38:06;6.47;;;1.95;;
27746;SDS011;15138;51.012;4.692;2024-02-04T13:40:35;2.63;;;1.88;;
27746;SDS011;15138;51.012;4.692;2024-02-04T13:43:03;4.30;;;1.70;;
27746;SDS011;15138;51.012;4.692;2024-02-04T13:45:32;4.78;;;1.92;;
27746;SDS011;15138;51.012;4.692;2024-02-04T13:48:00;4.32;;;1.83;;
27746;SDS011;15138;51.012;4.692;2024-02-04T13:50:29;3.88;;;1.70;;
27746;SDS011;15138;51.012;4.692;2024-02-04T13:52:58;6.68;;;1.42;;
27746;SDS011;15138;51.012;4.692;2024-02-04T13:55:28;4.55;;;1.58;;
27746;SDS011;15138;51.012;4.692;2024-02-04T13:57:56;3.05;;;1.70;;
27746;SDS011;15138;51.012;4.692;2024-02-04T14:00:26;3.17;;;1.10;;
27746;SDS011;15138;51.012;4.692;2024-02-04T14:02:55;4.07;;;1.88;;
27746;SDS011;15138;51.012;4.692;2024-02-04T14:05:23;8.02;;;2.75;;
27746;SDS011;15138;51.012;4.692;2024-02-04T14:07:52;5.30;;;2.28;;
27746;SDS011;15138;51.012;4.692;2024-02-04T14:10:25;6.15;;;1.92;;
27746;SDS011;15138;51.012;4.692;2024-02-04T14:12:55;4.47;;;1.83;;
27746;SDS011;15138;51.012;4.692;2024-02-04T14:15:23;7.05;;;1.92;;
27746;SDS011;15138;51.012;4.692;2024-02-04T14:17:52;7.10;;;1.98;;
27746;SDS011;15138;51.012;4.692;2024-02-04T14:20:20;4.03;;;1.40;;
27746;SDS011;15138;51.012;4.692;2024-02-04T14:22:50;3.78;;;1.65;;
27746;SDS011;15138;51.012;4.692;2024-02-04T14:25:18;5.45;;;1.60;;
27746;SDS011;15138;51.012;4.692;2024-02-04T14:27:47;5.20;;;1.58;;
27746;SDS011;15138;51.012;4.692;2024-02-04T14:30:17;3.10;;;1.67;;
27746;SDS011;15138;51.012;4.692;2024-02-04T14:32:46;5.70;;;1.60;;
27746;SDS011;15138;51.012;4.692;2024-02-04T14:35:17;4.47;;;1.55;;
27746;SDS011;15138;51.012;4.692;2024-02-04T14:37:46;6.60;;;2.10;;
27746;SDS011;15138;51.012;4.692;2024-02-04T14:40:14;3.30;;;1.48;;
27746;SDS011;15138;51.012;4.692;2024-02-04T14:42:43;3.95;;;1.73;;
27746;SDS011;15138;51.012;4.692;2024-02-04T14:45:11;8.30;;;1.42;;
27746;SDS011;15138;51.012;4.692;2024-02-04T14:47:41;4.28;;;1.80;;
27746;SDS011;15138;51.012;4.692;2024-02-04T14:50:10;5.00;;;2.00;;
27746;SDS011;15138;51.012;4.692;2024-02-04T14:52:39;8.18;;;2.17;;